sensor_id;sensor_type;location;lat;lon;timestamp;pressure;altitude;pressure_sealevel;temperature;humidity
50310;BME280;36207;51.850;21.698;2023-12-20T00:01:35;99119.16;;;5.49;93.74
50310;BME280;36207;51.850;21.698;2023-12-20T00:04:02;99112.72;;;5.48;93.32
50310;BME280;36207;51.850;21.698;2023-12-20T00:06:29;99108.31;;;5.48;93.61
50310;BME280;36207;51.850;21.698;2023-12-20T00:08:55;99106.72;;;5.48;93.55
50310;BME280;36207;51.850;21.698;2023-12-20T00:11:21;99109.77;;;5.47;93.83
50310;BME280;36207;51.850;21.698;2023-12-20T00:13:47;99112.42;;;5.47;94.05
50310;BME280;36207;51.850;21.698;2023-12-20T00:16:14;99110.73;;;5.47;93.92
50310;BME280;36207;51.850;21.698;2023-12-20T00:18:40;99109.54;;;5.46;93.42
50310;BME280;36207;51.850;21.698;2023-12-20T00:21:05;99105.52;;;5.46;94.03
50310;BME280;36207;51.850;21.698;2023-12-20T00:23:32;99101.37;;;5.45;94.37
50310;BME280;36207;51.850;21.698;2023-12-20T00:25:57;99095.12;;;5.44;94.21
50310;BME280;36207;51.850;21.698;2023-12-20T00:28:23;99093.16;;;5.45;94.11
50310;BME280;36207;51.850;21.698;2023-12-20T00:30:49;99091.14;;;5.43;94.77
50310;BME280;36207;51.850;21.698;2023-12-20T00:33:15;99088.34;;;5.42;95.02
50310;BME280;36207;51.850;21.698;2023-12-20T00:35:41;99082.67;;;5.40;95.42
50310;BME280;36207;51.850;21.698;2023-12-20T00:38:07;99083.80;;;5.39;95.24
50310;BME280;36207;51.850;21.698;2023-12-20T00:40:35;99087.67;;;5.38;95.39
50310;BME280;36207;51.850;21.698;2023-12-20T00:43:01;99080.85;;;5.37;94.74
50310;BME280;36207;51.850;21.698;2023-12-20T00:45:27;99083.02;;;5.37;95.18
50310;BME280;36207;51.850;21.698;2023-12-20T00:47:52;99083.95;;;5.36;95.48
50310;BME280;36207;51.850;21.698;2023-12-20T00:50:18;99079.70;;;5.35;95.45
50310;BME280;36207;51.850;21.698;2023-12-20T00:52:44;99075.17;;;5.34;95.00
50310;BME280;36207;51.850;21.698;2023-12-20T00:55:10;99073.42;;;5.34;95.35
50310;BME280;36207;51.850;21.698;2023-12-20T00:57:36;99071.73;;;5.33;95.50
50310;BME280;36207;51.850;21.698;2023-12-20T01:00:02;99067.73;;;5.33;95.53
50310;BME280;36207;51.850;21.698;2023-12-20T01:02:28;99066.41;;;5.32;95.68
50310;BME280;36207;51.850;21.698;2023-12-20T01:04:54;99064.71;;;5.31;95.37
50310;BME280;36207;51.850;21.698;2023-12-20T01:07:21;99062.11;;;5.31;95.38
50310;BME280;36207;51.850;21.698;2023-12-20T01:09:47;99057.38;;;5.31;95.75
50310;BME280;36207;51.850;21.698;2023-12-20T01:12:13;99057.15;;;5.30;95.82
50310;BME280;36207;51.850;21.698;2023-12-20T01:14:39;99055.20;;;5.28;95.96
50310;BME280;36207;51.850;21.698;2023-12-20T01:17:05;99051.23;;;5.28;95.75
50310;BME280;36207;51.850;21.698;2023-12-20T01:19:31;99051.20;;;5.28;95.39
50310;BME280;36207;51.850;21.698;2023-12-20T01:21:57;99047.92;;;5.27;95.63
50310;BME280;36207;51.850;21.698;2023-12-20T01:24:23;99045.64;;;5.27;95.85
50310;BME280;36207;51.850;21.698;2023-12-20T01:26:49;99041.48;;;5.26;96.00
50310;BME280;36207;51.850;21.698;2023-12-20T01:29:15;99036.64;;;5.25;96.14
50310;BME280;36207;51.850;21.698;2023-12-20T01:31:41;99035.22;;;5.24;96.45
50310;BME280;36207;51.850;21.698;2023-12-20T01:34:07;99037.14;;;5.24;95.77
50310;BME280;36207;51.850;21.698;2023-12-20T01:36:33;99029.08;;;5.24;96.13
50310;BME280;36207;51.850;21.698;2023-12-20T01:38:59;99029.27;;;5.23;96.26
50310;BME280;36207;51.850;21.698;2023-12-20T01:41:25;99029.54;;;5.23;96.53
50310;BME280;36207;51.850;21.698;2023-12-20T01:43:51;99029.17;;;5.23;96.74
50310;BME280;36207;51.850;21.698;2023-12-20T01:46:20;99027.16;;;5.22;96.91
50310;BME280;36207;51.850;21.698;2023-12-20T01:48:48;99021.17;;;5.22;96.66
50310;BME280;36207;51.850;21.698;2023-12-20T01:51:15;99017.14;;;5.21;96.75
50310;BME280;36207;51.850;21.698;2023-12-20T01:53:42;99014.48;;;5.22;96.30
50310;BME280;36207;51.850;21.698;2023-12-20T01:56:08;99011.38;;;5.23;96.66
50310;BME280;36207;51.850;21.698;2023-12-20T01:58:34;99003.47;;;5.22;96.98
50310;BME280;36207;51.850;21.698;2023-12-20T02:01:01;99002.29;;;5.22;97.12
50310;BME280;36207;51.850;21.698;2023-12-20T02:03:27;99002.15;;;5.21;96.99
50310;BME280;36207;51.850;21.698;2023-12-20T02:05:53;99000.70;;;5.22;96.84
50310;BME280;36207;51.850;21.698;2023-12-20T02:08:18;99003.70;;;5.22;96.92
50310;BME280;36207;51.850;21.698;2023-12-20T02:10:44;98994.38;;;5.21;97.04
50310;BME280;36207;51.850;21.698;2023-12-20T02:13:10;98995.80;;;5.21;97.11
50310;BME280;36207;51.850;21.698;2023-12-20T02:15:36;98997.98;;;5.21;97.66
50310;BME280;36207;51.850;21.698;2023-12-20T02:18:03;98990.23;;;5.21;97.21
50310;BME280;36207;51.850;21.698;2023-12-20T02:20:30;98990.07;;;5.21;97.22
50310;BME280;36207;51.850;21.698;2023-12-20T02:22:56;98991.77;;;5.21;97.28
50310;BME280;36207;51.850;21.698;2023-12-20T02:25:21;98991.09;;;5.21;97.36
50310;BME280;36207;51.850;21.698;2023-12-20T02:27:48;98990.54;;;5.21;97.44
50310;BME280;36207;51.850;21.698;2023-12-20T02:30:15;98989.28;;;5.21;97.50
50310;BME280;36207;51.850;21.698;2023-12-20T02:32:41;98988.55;;;5.21;97.59
50310;BME280;36207;51.850;21.698;2023-12-20T02:35:07;98990.55;;;5.21;97.87
50310;BME280;36207;51.850;21.698;2023-12-20T02:37:33;98988.38;;;5.22;97.74
50310;BME280;36207;51.850;21.698;2023-12-20T02:40:00;98987.63;;;5.22;97.91
50310;BME280;36207;51.850;21.698;2023-12-20T02:42:26;98981.54;;;5.21;98.08
50310;BME280;36207;51.850;21.698;2023-12-20T02:44:51;98980.45;;;5.21;97.78
50310;BME280;36207;51.850;21.698;2023-12-20T02:47:17;98977.33;;;5.22;97.79
50310;BME280;36207;51.850;21.698;2023-12-20T02:49:43;98975.70;;;5.23;97.80
50310;BME280;36207;51.850;21.698;2023-12-20T02:52:09;98975.27;;;5.23;97.86
50310;BME280;36207;51.850;21.698;2023-12-20T02:54:35;98968.09;;;5.23;98.07
50310;BME280;36207;51.850;21.698;2023-12-20T02:57:01;98966.47;;;5.23;98.05
50310;BME280;36207;51.850;21.698;2023-12-20T02:59:27;98969.67;;;5.23;98.25
50310;BME280;36207;51.850;21.698;2023-12-20T03:01:53;98969.81;;;5.23;98.12
50310;BME280;36207;51.850;21.698;2023-12-20T03:04:19;98966.20;;;5.24;98.11
50310;BME280;36207;51.850;21.698;2023-12-20T03:06:44;98957.84;;;5.23;98.12
50310;BME280;36207;51.850;21.698;2023-12-20T03:09:10;98958.08;;;5.24;98.02
50310;BME280;36207;51.850;21.698;2023-12-20T03:11:36;98951.89;;;5.24;97.65
50310;BME280;36207;51.850;21.698;2023-12-20T03:14:02;98954.26;;;5.25;97.78
50310;BME280;36207;51.850;21.698;2023-12-20T03:16:28;98954.46;;;5.25;98.21
50310;BME280;36207;51.850;21.698;2023-12-20T03:18:54;98960.61;;;5.25;98.24
50310;BME280;36207;51.850;21.698;2023-12-20T03:21:20;98959.02;;;5.25;98.32
50310;BME280;36207;51.850;21.698;2023-12-20T03:23:46;98956.38;;;5.25;98.66
50310;BME280;36207;51.850;21.698;2023-12-20T03:26:12;98957.60;;;5.25;98.47
50310;BME280;36207;51.850;21.698;2023-12-20T03:28:38;98957.60;;;5.25;98.06
50310;BME280;36207;51.850;21.698;2023-12-20T03:31:04;98954.35;;;5.26;98.06
50310;BME280;36207;51.850;21.698;2023-12-20T03:33:30;98950.55;;;5.25;98.10
50310;BME280;36207;51.850;21.698;2023-12-20T03:35:56;98951.99;;;5.26;97.98
50310;BME280;36207;51.850;21.698;2023-12-20T03:38:22;98951.61;;;5.27;97.98
50310;BME280;36207;51.850;21.698;2023-12-20T03:40:50;98950.64;;;5.27;98.04
50310;BME280;36207;51.850;21.698;2023-12-20T03:43:16;98951.79;;;5.28;97.80
50310;BME280;36207;51.850;21.698;2023-12-20T03:45:43;98950.70;;;5.28;97.76
50310;BME280;36207;51.850;21.698;2023-12-20T03:48:09;98953.65;;;5.29;98.06
50310;BME280;36207;51.850;21.698;2023-12-20T03:50:35;98951.50;;;5.29;97.91
50310;BME280;36207;51.850;21.698;2023-12-20T03:53:01;98948.14;;;5.29;97.92
50310;BME280;36207;51.850;21.698;2023-12-20T03:55:27;98948.46;;;5.30;97.85
50310;BME280;36207;51.850;21.698;2023-12-20T03:57:53;98948.27;;;5.30;97.90
50310;BME280;36207;51.850;21.698;2023-12-20T04:00:19;98943.70;;;5.29;98.03
50310;BME280;36207;51.850;21.698;2023-12-20T04:02:45;98938.61;;;5.29;97.98
50310;BME280;36207;51.850;21.698;2023-12-20T04:05:11;98939.33;;;5.29;97.98
50310;BME280;36207;51.850;21.698;2023-12-20T04:07:37;98943.92;;;5.29;97.96
50310;BME280;36207;51.850;21.698;2023-12-20T04:10:04;98941.24;;;5.30;97.89
50310;BME280;36207;51.850;21.698;2023-12-20T04:12:31;98937.91;;;5.29;97.65
50310;BME280;36207;51.850;21.698;2023-12-20T04:14:57;98938.73;;;5.30;97.56
50310;BME280;36207;51.850;21.698;2023-12-20T04:17:23;98937.07;;;5.31;97.77
50310;BME280;36207;51.850;21.698;2023-12-20T04:19:50;98934.52;;;5.31;97.55
50310;BME280;36207;51.850;21.698;2023-12-20T04:22:17;98931.63;;;5.32;97.48
50310;BME280;36207;51.850;21.698;2023-12-20T04:24:43;98928.55;;;5.32;97.56
50310;BME280;36207;51.850;21.698;2023-12-20T04:27:09;98931.73;;;5.32;97.82
50310;BME280;36207;51.850;21.698;2023-12-20T04:29:35;98935.40;;;5.33;97.59
50310;BME280;36207;51.850;21.698;2023-12-20T04:32:01;98935.01;;;5.33;97.77
50310;BME280;36207;51.850;21.698;2023-12-20T04:34:27;98934.11;;;5.33;97.65
50310;BME280;36207;51.850;21.698;2023-12-20T04:36:53;98937.98;;;5.33;97.81
50310;BME280;36207;51.850;21.698;2023-12-20T04:39:19;98938.08;;;5.34;97.78
50310;BME280;36207;51.850;21.698;2023-12-20T04:41:45;98939.16;;;5.34;97.85
50310;BME280;36207;51.850;21.698;2023-12-20T04:44:13;98937.91;;;5.34;97.69
50310;BME280;36207;51.850;21.698;2023-12-20T04:46:39;98928.22;;;5.34;97.79
50310;BME280;36207;51.850;21.698;2023-12-20T04:49:05;98928.54;;;5.34;97.91
50310;BME280;36207;51.850;21.698;2023-12-20T04:51:35;98931.89;;;5.34;97.87
50310;BME280;36207;51.850;21.698;2023-12-20T04:54:02;98934.54;;;5.34;97.72
50310;BME280;36207;51.850;21.698;2023-12-20T04:56:28;98936.98;;;5.34;97.89
50310;BME280;36207;51.850;21.698;2023-12-20T04:58:54;98929.92;;;5.34;97.60
50310;BME280;36207;51.850;21.698;2023-12-20T05:01:20;98929.55;;;5.34;97.51
50310;BME280;36207;51.850;21.698;2023-12-20T05:03:47;98936.25;;;5.34;97.53
50310;BME280;36207;51.850;21.698;2023-12-20T05:06:13;98933.73;;;5.35;97.57
50310;BME280;36207;51.850;21.698;2023-12-20T05:08:39;98932.87;;;5.36;97.55
50310;BME280;36207;51.850;21.698;2023-12-20T05:11:05;98925.49;;;5.36;97.49
50310;BME280;36207;51.850;21.698;2023-12-20T05:13:30;98921.71;;;5.36;97.57
50310;BME280;36207;51.850;21.698;2023-12-20T05:15:56;98919.14;;;5.36;97.59
50310;BME280;36207;51.850;21.698;2023-12-20T05:18:22;98914.25;;;5.35;97.61
50310;BME280;36207;51.850;21.698;2023-12-20T05:20:50;98916.79;;;5.36;97.53
50310;BME280;36207;51.850;21.698;2023-12-20T05:23:16;98916.65;;;5.36;97.50
50310;BME280;36207;51.850;21.698;2023-12-20T05:25:43;98917.62;;;5.37;97.37
50310;BME280;36207;51.850;21.698;2023-12-20T05:28:09;98920.19;;;5.38;97.51
50310;BME280;36207;51.850;21.698;2023-12-20T05:30:37;98919.32;;;5.37;97.45
50310;BME280;36207;51.850;21.698;2023-12-20T05:33:02;98915.89;;;5.38;97.29
50310;BME280;36207;51.850;21.698;2023-12-20T05:35:29;98917.98;;;5.38;97.32
50310;BME280;36207;51.850;21.698;2023-12-20T05:37:55;98916.55;;;5.39;97.22
50310;BME280;36207;51.850;21.698;2023-12-20T05:40:21;98916.11;;;5.40;97.02
50310;BME280;36207;51.850;21.698;2023-12-20T05:42:47;98917.54;;;5.39;97.30
50310;BME280;36207;51.850;21.698;2023-12-20T05:45:14;98913.09;;;5.38;97.31
50310;BME280;36207;51.850;21.698;2023-12-20T05:47:40;98910.60;;;5.37;97.41
50310;BME280;36207;51.850;21.698;2023-12-20T05:50:06;98911.73;;;5.36;97.60
50310;BME280;36207;51.850;21.698;2023-12-20T05:52:33;98918.69;;;5.35;97.65
50310;BME280;36207;51.850;21.698;2023-12-20T05:54:59;98919.21;;;5.35;97.60
50310;BME280;36207;51.850;21.698;2023-12-20T05:57:27;98906.77;;;5.35;97.49
50310;BME280;36207;51.850;21.698;2023-12-20T05:59:53;98908.05;;;5.34;97.48
50310;BME280;36207;51.850;21.698;2023-12-20T06:02:19;98910.14;;;5.34;97.25
50310;BME280;36207;51.850;21.698;2023-12-20T06:04:46;98907.30;;;5.34;97.54
50310;BME280;36207;51.850;21.698;2023-12-20T06:07:12;98907.64;;;5.35;97.47
50310;BME280;36207;51.850;21.698;2023-12-20T06:09:38;98901.73;;;5.35;97.29
50310;BME280;36207;51.850;21.698;2023-12-20T06:12:05;98905.22;;;5.36;97.25
50310;BME280;36207;51.850;21.698;2023-12-20T06:14:31;98907.61;;;5.36;97.19
50310;BME280;36207;51.850;21.698;2023-12-20T06:16:57;98909.34;;;5.37;97.27
50310;BME280;36207;51.850;21.698;2023-12-20T06:19:23;98913.05;;;5.37;97.21
50310;BME280;36207;51.850;21.698;2023-12-20T06:21:49;98911.16;;;5.36;97.20
50310;BME280;36207;51.850;21.698;2023-12-20T06:24:15;98911.40;;;5.36;97.23
50310;BME280;36207;51.850;21.698;2023-12-20T06:26:41;98911.40;;;5.36;97.32
50310;BME280;36207;51.850;21.698;2023-12-20T06:29:07;98913.11;;;5.36;97.17
50310;BME280;36207;51.850;21.698;2023-12-20T06:31:32;98916.38;;;5.37;97.16
50310;BME280;36207;51.850;21.698;2023-12-20T06:33:59;98918.60;;;5.36;97.13
50310;BME280;36207;51.850;21.698;2023-12-20T06:36:28;98920.73;;;5.36;97.31
50310;BME280;36207;51.850;21.698;2023-12-20T06:38:54;98921.77;;;5.36;97.24
50310;BME280;36207;51.850;21.698;2023-12-20T06:41:20;98917.27;;;5.35;97.41
50310;BME280;36207;51.850;21.698;2023-12-20T06:43:47;98914.92;;;5.34;97.50
50310;BME280;36207;51.850;21.698;2023-12-20T06:46:13;98912.56;;;5.35;97.58
50310;BME280;36207;51.850;21.698;2023-12-20T06:48:39;98914.33;;;5.35;97.57
50310;BME280;36207;51.850;21.698;2023-12-20T06:51:06;98917.51;;;5.35;97.87
50310;BME280;36207;51.850;21.698;2023-12-20T06:53:32;98917.70;;;5.35;97.66
50310;BME280;36207;51.850;21.698;2023-12-20T06:55:58;98920.17;;;5.35;97.61
50310;BME280;36207;51.850;21.698;2023-12-20T06:58:24;98921.56;;;5.35;97.91
50310;BME280;36207;51.850;21.698;2023-12-20T07:00:51;98921.66;;;5.34;98.12
50310;BME280;36207;51.850;21.698;2023-12-20T07:03:17;98916.96;;;5.33;97.98
50310;BME280;36207;51.850;21.698;2023-12-20T07:05:43;98914.65;;;5.34;97.63
50310;BME280;36207;51.850;21.698;2023-12-20T07:08:09;98915.91;;;5.33;97.71
50310;BME280;36207;51.850;21.698;2023-12-20T07:10:36;98913.02;;;5.34;97.86
50310;BME280;36207;51.850;21.698;2023-12-20T07:13:02;98919.54;;;5.34;97.72
50310;BME280;36207;51.850;21.698;2023-12-20T07:15:28;98920.20;;;5.34;97.73
50310;BME280;36207;51.850;21.698;2023-12-20T07:17:55;98920.70;;;5.34;97.85
50310;BME280;36207;51.850;21.698;2023-12-20T07:20:21;98919.86;;;5.36;97.91
50310;BME280;36207;51.850;21.698;2023-12-20T07:22:47;98913.48;;;5.36;97.81
50310;BME280;36207;51.850;21.698;2023-12-20T07:25:13;98911.05;;;5.37;97.89
50310;BME280;36207;51.850;21.698;2023-12-20T07:27:39;98910.73;;;5.37;97.92
50310;BME280;36207;51.850;21.698;2023-12-20T07:30:05;98913.44;;;5.36;97.98
50310;BME280;36207;51.850;21.698;2023-12-20T07:32:31;98911.30;;;5.35;98.05
50310;BME280;36207;51.850;21.698;2023-12-20T07:34:57;98913.02;;;5.35;98.08
50310;BME280;36207;51.850;21.698;2023-12-20T07:37:23;98908.17;;;5.35;98.14
50310;BME280;36207;51.850;21.698;2023-12-20T07:39:49;98913.32;;;5.34;98.02
50310;BME280;36207;51.850;21.698;2023-12-20T07:42:15;98911.08;;;5.34;98.30
50310;BME280;36207;51.850;21.698;2023-12-20T07:44:41;98912.73;;;5.33;98.31
50310;BME280;36207;51.850;21.698;2023-12-20T07:47:07;98912.45;;;5.33;98.13
50310;BME280;36207;51.850;21.698;2023-12-20T07:49:33;98914.10;;;5.32;98.11
50310;BME280;36207;51.850;21.698;2023-12-20T07:52:00;98919.73;;;5.32;98.16
50310;BME280;36207;51.850;21.698;2023-12-20T07:54:26;98921.73;;;5.32;98.02
50310;BME280;36207;51.850;21.698;2023-12-20T07:56:51;98923.16;;;5.32;98.10
50310;BME280;36207;51.850;21.698;2023-12-20T07:59:18;98919.31;;;5.31;98.30
50310;BME280;36207;51.850;21.698;2023-12-20T08:01:43;98917.04;;;5.31;98.21
50310;BME280;36207;51.850;21.698;2023-12-20T08:04:09;98918.79;;;5.31;98.22
50310;BME280;36207;51.850;21.698;2023-12-20T08:06:35;98920.91;;;5.31;98.30
50310;BME280;36207;51.850;21.698;2023-12-20T08:09:01;98922.28;;;5.30;98.43
50310;BME280;36207;51.850;21.698;2023-12-20T08:11:28;98921.48;;;5.29;98.29
50310;BME280;36207;51.850;21.698;2023-12-20T08:13:55;98923.98;;;5.29;98.19
50310;BME280;36207;51.850;21.698;2023-12-20T08:16:21;98919.21;;;5.29;98.31
50310;BME280;36207;51.850;21.698;2023-12-20T08:18:47;98920.64;;;5.29;98.32
50310;BME280;36207;51.850;21.698;2023-12-20T08:21:13;98916.92;;;5.29;98.22
50310;BME280;36207;51.850;21.698;2023-12-20T08:23:39;98914.84;;;5.29;98.27
50310;BME280;36207;51.850;21.698;2023-12-20T08:26:08;98912.73;;;5.29;98.09
50310;BME280;36207;51.850;21.698;2023-12-20T08:28:36;98909.54;;;5.29;98.13
50310;BME280;36207;51.850;21.698;2023-12-20T08:31:03;98915.04;;;5.29;98.20
50310;BME280;36207;51.850;21.698;2023-12-20T08:33:29;98917.32;;;5.29;98.35
50310;BME280;36207;51.850;21.698;2023-12-20T08:35:55;98916.66;;;5.28;98.24
50310;BME280;36207;51.850;21.698;2023-12-20T08:38:20;98918.92;;;5.27;98.30
50310;BME280;36207;51.850;21.698;2023-12-20T08:40:47;98920.34;;;5.27;98.21
50310;BME280;36207;51.850;21.698;2023-12-20T08:43:13;98924.52;;;5.28;98.40
50310;BME280;36207;51.850;21.698;2023-12-20T08:45:38;98920.11;;;5.27;98.33
50310;BME280;36207;51.850;21.698;2023-12-20T08:48:05;98919.77;;;5.27;98.39
50310;BME280;36207;51.850;21.698;2023-12-20T08:50:31;98924.02;;;5.27;98.47
50310;BME280;36207;51.850;21.698;2023-12-20T08:52:57;98925.14;;;5.27;98.56
50310;BME280;36207;51.850;21.698;2023-12-20T08:55:23;98922.79;;;5.26;98.51
50310;BME280;36207;51.850;21.698;2023-12-20T08:57:49;98921.36;;;5.26;98.57
50310;BME280;36207;51.850;21.698;2023-12-20T09:00:16;98916.83;;;5.25;98.52
50310;BME280;36207;51.850;21.698;2023-12-20T09:02:43;98917.56;;;5.25;98.45
50310;BME280;36207;51.850;21.698;2023-12-20T09:05:09;98917.08;;;5.25;98.44
50310;BME280;36207;51.850;21.698;2023-12-20T09:07:35;98916.30;;;5.25;98.58
50310;BME280;36207;51.850;21.698;2023-12-20T09:10:01;98916.38;;;5.25;98.61
50310;BME280;36207;51.850;21.698;2023-12-20T09:12:27;98912.76;;;5.24;98.58
50310;BME280;36207;51.850;21.698;2023-12-20T09:14:53;98908.84;;;5.24;98.56
50310;BME280;36207;51.850;21.698;2023-12-20T09:17:19;98905.50;;;5.24;98.57
50310;BME280;36207;51.850;21.698;2023-12-20T09:19:47;98905.67;;;5.24;98.69
50310;BME280;36207;51.850;21.698;2023-12-20T09:22:14;98900.60;;;5.24;98.62
50310;BME280;36207;51.850;21.698;2023-12-20T09:24:40;98898.54;;;5.23;98.74
50310;BME280;36207;51.850;21.698;2023-12-20T09:27:06;98897.66;;;5.23;98.74
50310;BME280;36207;51.850;21.698;2023-12-20T09:29:32;98892.63;;;5.22;98.85
50310;BME280;36207;51.850;21.698;2023-12-20T09:31:58;98886.58;;;5.23;98.71
50310;BME280;36207;51.850;21.698;2023-12-20T09:34:24;98884.79;;;5.23;98.67
50310;BME280;36207;51.850;21.698;2023-12-20T09:36:51;98882.23;;;5.22;98.52
50310;BME280;36207;51.850;21.698;2023-12-20T09:39:19;98878.29;;;5.21;98.36
50310;BME280;36207;51.850;21.698;2023-12-20T09:41:57;98873.55;;;5.19;98.41
50310;BME280;36207;51.850;21.698;2023-12-20T09:44:25;98869.36;;;5.19;98.17
50310;BME280;36207;51.850;21.698;2023-12-20T09:46:52;98866.75;;;5.19;98.19
50310;BME280;36207;51.850;21.698;2023-12-20T09:49:20;98863.91;;;5.19;98.15
50310;BME280;36207;51.850;21.698;2023-12-20T09:51:47;98860.07;;;5.19;98.09
50310;BME280;36207;51.850;21.698;2023-12-20T09:54:17;98855.93;;;5.19;98.10
50310;BME280;36207;51.850;21.698;2023-12-20T09:56:44;98854.77;;;5.20;98.03
50310;BME280;36207;51.850;21.698;2023-12-20T09:59:10;98854.14;;;5.21;98.09
50310;BME280;36207;51.850;21.698;2023-12-20T10:01:38;98855.89;;;5.21;98.14
50310;BME280;36207;51.850;21.698;2023-12-20T10:04:06;98857.94;;;5.22;98.26
50310;BME280;36207;51.850;21.698;2023-12-20T10:06:40;98857.45;;;5.23;98.23
50310;BME280;36207;51.850;21.698;2023-12-20T10:09:06;98856.07;;;5.23;98.23
50310;BME280;36207;51.850;21.698;2023-12-20T10:11:32;98855.04;;;5.22;98.08
50310;BME280;36207;51.850;21.698;2023-12-20T10:14:01;98851.51;;;5.23;97.83
50310;BME280;36207;51.850;21.698;2023-12-20T10:16:27;98846.95;;;5.22;97.77
50310;BME280;36207;51.850;21.698;2023-12-20T10:18:54;98846.61;;;5.22;97.59
50310;BME280;36207;51.850;21.698;2023-12-20T10:21:22;98847.84;;;5.22;97.61
50310;BME280;36207;51.850;21.698;2023-12-20T10:23:49;98843.96;;;5.22;97.54
50310;BME280;36207;51.850;21.698;2023-12-20T10:26:26;98843.35;;;5.21;97.67
50310;BME280;36207;51.850;21.698;2023-12-20T10:28:59;98844.27;;;5.21;97.69
50310;BME280;36207;51.850;21.698;2023-12-20T10:31:34;98846.15;;;5.22;97.87
50310;BME280;36207;51.850;21.698;2023-12-20T10:34:02;98841.09;;;5.21;98.02
50310;BME280;36207;51.850;21.698;2023-12-20T10:36:32;98834.61;;;5.21;98.14
50310;BME280;36207;51.850;21.698;2023-12-20T10:38:59;98830.20;;;5.21;98.12
50310;BME280;36207;51.850;21.698;2023-12-20T10:41:30;98825.15;;;5.20;98.10
50310;BME280;36207;51.850;21.698;2023-12-20T10:43:59;98822.51;;;5.20;98.17
50310;BME280;36207;51.850;21.698;2023-12-20T10:46:29;98816.67;;;5.20;98.47
50310;BME280;36207;51.850;21.698;2023-12-20T10:48:59;98815.13;;;5.20;98.40
50310;BME280;36207;51.850;21.698;2023-12-20T10:51:27;98815.49;;;5.20;98.46
50310;BME280;36207;51.850;21.698;2023-12-20T10:53:56;98814.52;;;5.19;98.32
50310;BME280;36207;51.850;21.698;2023-12-20T10:56:22;98811.46;;;5.19;98.42
50310;BME280;36207;51.850;21.698;2023-12-20T10:58:52;98809.61;;;5.19;98.43
50310;BME280;36207;51.850;21.698;2023-12-20T11:01:18;98809.30;;;5.18;98.50
50310;BME280;36207;51.850;21.698;2023-12-20T11:03:54;98809.84;;;5.18;98.71
50310;BME280;36207;51.850;21.698;2023-12-20T11:06:37;98805.39;;;5.17;98.61
50310;BME280;36207;51.850;21.698;2023-12-20T11:09:29;98806.40;;;5.17;98.63
50310;BME280;36207;51.850;21.698;2023-12-20T11:17:10;98797.98;;;5.15;98.66
50310;BME280;36207;51.850;21.698;2023-12-20T11:22:22;98794.11;;;5.15;98.65
50310;BME280;36207;51.850;21.698;2023-12-20T11:24:49;98796.07;;;5.15;98.73
50310;BME280;36207;51.850;21.698;2023-12-20T11:27:16;98796.66;;;5.14;98.80
50310;BME280;36207;51.850;21.698;2023-12-20T11:29:41;98796.86;;;5.14;98.83
50310;BME280;36207;51.850;21.698;2023-12-20T11:34:59;98793.36;;;5.12;98.96
50310;BME280;36207;51.850;21.698;2023-12-20T11:37:35;98787.52;;;5.12;99.08
50310;BME280;36207;51.850;21.698;2023-12-20T11:40:22;98782.86;;;5.12;98.89
50310;BME280;36207;51.850;21.698;2023-12-20T11:42:49;98776.83;;;5.10;98.74
50310;BME280;36207;51.850;21.698;2023-12-20T11:45:21;98770.55;;;5.10;98.82
50310;BME280;36207;51.850;21.698;2023-12-20T11:47:49;98771.55;;;5.08;98.96
50310;BME280;36207;51.850;21.698;2023-12-20T11:50:18;98767.69;;;5.07;98.90
50310;BME280;36207;51.850;21.698;2023-12-20T11:52:44;98765.92;;;5.06;98.88
50310;BME280;36207;51.850;21.698;2023-12-20T11:55:10;98764.38;;;5.05;98.93
50310;BME280;36207;51.850;21.698;2023-12-20T11:57:37;98758.59;;;5.05;99.02
50310;BME280;36207;51.850;21.698;2023-12-20T12:00:04;98760.02;;;5.05;99.01
50310;BME280;36207;51.850;21.698;2023-12-20T12:02:30;98761.65;;;5.06;99.35
50310;BME280;36207;51.850;21.698;2023-12-20T12:04:56;98757.45;;;5.06;99.33
50310;BME280;36207;51.850;21.698;2023-12-20T12:07:24;98756.80;;;5.05;99.29
50310;BME280;36207;51.850;21.698;2023-12-20T12:09:51;98755.05;;;5.05;99.35
50310;BME280;36207;51.850;21.698;2023-12-20T12:12:19;98750.16;;;5.05;99.15
50310;BME280;36207;51.850;21.698;2023-12-20T12:14:45;98750.23;;;5.04;99.16
50310;BME280;36207;51.850;21.698;2023-12-20T12:17:14;98749.92;;;5.04;99.23
50310;BME280;36207;51.850;21.698;2023-12-20T12:19:42;98744.98;;;5.04;99.35
50310;BME280;36207;51.850;21.698;2023-12-20T12:22:14;98739.99;;;5.04;99.45
50310;BME280;36207;51.850;21.698;2023-12-20T12:24:43;98737.82;;;5.05;99.41
50310;BME280;36207;51.850;21.698;2023-12-20T12:27:10;98734.13;;;5.04;99.34
50310;BME280;36207;51.850;21.698;2023-12-20T12:29:37;98735.48;;;5.05;99.42
50310;BME280;36207;51.850;21.698;2023-12-20T12:32:07;98735.02;;;5.04;99.52
50310;BME280;36207;51.850;21.698;2023-12-20T12:34:35;98732.66;;;5.03;99.46
50310;BME280;36207;51.850;21.698;2023-12-20T12:37:03;98730.82;;;5.02;99.44
50310;BME280;36207;51.850;21.698;2023-12-20T12:39:29;98733.08;;;5.01;99.41
50310;BME280;36207;51.850;21.698;2023-12-20T12:41:56;98727.00;;;4.99;99.02
50310;BME280;36207;51.850;21.698;2023-12-20T12:44:22;98722.55;;;4.98;99.03
50310;BME280;36207;51.850;21.698;2023-12-20T12:46:52;98725.50;;;4.97;98.85
50310;BME280;36207;51.850;21.698;2023-12-20T12:49:20;98730.92;;;4.95;99.00
50310;BME280;36207;51.850;21.698;2023-12-20T12:51:47;98731.39;;;4.94;99.19
50310;BME280;36207;51.850;21.698;2023-12-20T12:54:13;98723.86;;;4.94;99.12
50310;BME280;36207;51.850;21.698;2023-12-20T12:56:42;98717.41;;;4.93;98.99
50310;BME280;36207;51.850;21.698;2023-12-20T12:59:09;98714.16;;;4.91;98.56
50310;BME280;36207;51.850;21.698;2023-12-20T13:01:34;98714.79;;;4.90;98.58
50310;BME280;36207;51.850;21.698;2023-12-20T13:04:01;98715.71;;;4.89;98.58
50310;BME280;36207;51.850;21.698;2023-12-20T13:06:32;98716.29;;;4.87;98.40
50310;BME280;36207;51.850;21.698;2023-12-20T13:08:58;98716.13;;;4.87;98.68